x

Buoy F01 - West Penobscot Bay (44033) Wave Buoy

9:04am - Wed 1st Oct 2014 All times are EDT. -4 hours from GMT.

  • Sig Wave height 2.0ft
  • Peak Period 3s
  • Wind
    18mph, 20mph gusts
  • Sea Temp 56°f
  • Air Temp 56°f
  • Sea Pressure 1019.1mb
  • Buoy F01 - West Penobscot Bay
  • Buoy F01 - West Penobscot Bay

More Historic Weather Station data

Upgrade to MSW Pro to gain access to the past 30 days of data for over 8000 Wavebouys and Weather Stations around the globe.

Join Pro

Comparision Forecast

View Surf forecast
   
Wed 10/01 9:04am 2ft 3s 18 20 mph 1019.1mb 56f 56f
8:04am 2ft 3s 18 20 mph 1018.6mb 56f 55f
7:04am 1.6ft 3s 18 22 mph 1017.8mb 56f 56f
6:04am 1.3ft 3s 18 20 mph 1017.1mb 56f 56f
5:04am 1.3ft 3s 11 13 mph 1016.8mb 56f 56f
4:04am 1.3ft 3s 11 13 mph 1016.5mb 56f 56f
3:04am 0.7ft  -  13 18 mph 1016.5mb 56f 56f
2:04am 1ft 3s 9 11 mph 1017.1mb 56f 56f
1:04am 1ft 5s 11 13 mph 1017.1mb 56f 56f
12:04am 1ft 2s 11 13 mph 1017mb 56f 57f
Tue 09/30 11:04pm 1ft 6s 9 11 mph 1017.1mb 56f 56f
10:04pm 1ft 6s 9 11 mph 1016.9mb 57f 56f
9:04pm 1ft 5s 7 9 mph 1016.9mb 57f 56f
8:04pm 1ft 5s 9
mph
1016.5mb 57f 56f
6:04pm 1.3ft 8s 9 11 mph 1016.2mb 57f 56f
5:04pm 1.3ft 6s 11 13 mph 1015.7mb 57f 55f
4:04pm 1.3ft 5s 13 16 mph 1015.7mb 57f 55f
3:04pm 1.6ft 6s 13 16 mph 1015.8mb 56f 54f
2:04pm 2ft 3s 13 16 mph 1016.1mb 56f 54f
1:04pm 2.5ft 5s 13 18 mph 1016.2mb 56f 53f
12:04pm 2ft 6s 16 18 mph 1016.5mb 57f 53f
11:04am 2ft 5s 16 20 mph 1016.9mb 57f 53f
10:04am 2.5ft 5s 16 18 mph 1017.3mb 58f 52f
9:04am 2.5ft 6s 16 20 mph 1017mb 57f 52f
8:04am 2.5ft 6s 20 25 mph 1016.2mb 56f 52f
7:04am 2.5ft 6s 18 20 mph 1016.8mb 56f 52f
6:04am 2.5ft 6s 18 20 mph 1016.2mb 56f 52f
5:04am 2.5ft 6s 16 20 mph 1015.6mb 56f 53f
4:04am 2.5ft 3s 16 18 mph 1016mb 56f 53f
3:04am 2ft 3s 16 20 mph 1016.1mb 56f 52f
2:04am 1.6ft 3s 18 20 mph 1016.4mb 56f 53f
1:04am 2.5ft 3s 16 20 mph 1016.7mb 56f 53f
12:04am  -   -  16 20 mph 1016.5mb 56f 53f
Mon 09/29 11:04pm 2.5ft 3s 16 20 mph 1017mb 56f 53f
10:04pm 2.5ft 6s 18 25 mph 1017.3mb 56f 53f
9:04pm 2ft 5s 13 18 mph 1017.8mb 56f 54f
8:04pm 2ft 4s 16 18 mph 1017.7mb 56f 55f
7:04pm 2.5ft 6s 16 18 mph 1017.3mb 56f 55f
6:04pm 2.5ft 8s 16 20 mph 1016.9mb 56f 56f
5:04pm 2ft 6s 16 18 mph 1016.5mb 56f 57f
4:04pm 2ft 6s 16 18 mph 1016.4mb 56f 58f
3:04pm 1.6ft 3s 11 13 mph 1015.9mb 56f 58f
2:04pm 2.5ft 3s 16 18 mph 1015.4mb 56f 58f
1:04pm 2.5ft 3s 18 22 mph 1015.6mb 56f 58f
12:04pm 2ft 3s 18 25 mph 1015.7mb 58f 60f
11:04am 1.3ft 5s 9 13 mph 1015.2mb 58f 62f
10:04am 1.3ft 5s 9
mph
1014.6mb 58f 60f
9:04am 1.6ft 5s 9 11 mph 1014.2mb 58f 59f
8:04am 1.6ft 5s 7 9 mph 1013.8mb 58f 59f
7:04am 1.6ft 5s 7 9 mph 1013.4mb 58f 59f
6:04am 1.3ft 5s 4
mph
1012.9mb 57f 58f
5:04am 1.3ft 5s 2
mph
1012.7mb 57f 58f
4:04am 1.3ft 5s 4 7 mph 1012.4mb 57f 58f
3:04am 1.3ft 4s 7
mph
1012mb 57f 59f
2:04am 1.3ft 4s 4 7 mph 1012.3mb 58f 58f
1:04am 1.3ft 4s 4
mph
1012.4mb 58f 58f
Sun 09/28 11:04pm 1ft 6s 4
mph
1013.2mb 58f 59f
10:04pm 1ft 8s 4 7 mph 1013.4mb 58f 60f
9:04pm 1ft 8s 7
mph
1013.8mb 58f 60f
8:04pm 0.7ft  -  9
mph
1014mb 58f 60f
7:04pm 1ft 2s 11 13 mph 1013.8mb 57f 60f
6:04pm 1.3ft 6s 13 16 mph 1013.7mb 57f 60f
5:04pm 1ft 3s 13 16 mph 1013.8mb 57f 60f
4:04pm 1.3ft 6s 13 16 mph 1014.1mb 58f 60f
3:04pm 1.3ft 8s 13 16 mph 1014.3mb 58f 60f
2:04pm 1ft 6s 9 11 mph 1015.2mb 58f 60f
1:04pm 0.7ft  -  11 13 mph 1015.9mb 58f 60f
12:04pm 1ft 6s 11 13 mph 1016.9mb 58f 60f
11:04am 1ft 8s 11
mph
1017.6mb 58f 59f
10:04am 1ft 8s 9 11 mph 1018.3mb 57f 59f
9:04am 1ft 8s 9 11 mph 1018.9mb 57f 59f
8:04am 1ft 8s 7
mph
1019.1mb 57f 59f
7:04am 1ft 8s 7 9 mph 1019.1mb 57f 59f
6:04am 1.3ft 6s 7 9 mph 1018.8mb 57f 58f
4:04am 1ft 6s 4 7 mph 1019mb 57f 58f
3:04am 1.3ft 6s 4
mph
1019.2mb 57f 59f
2:04am 1.3ft 8s 4 7 mph 1019.2mb 57f 59f
1:04am 0.7ft  -  4
mph
1019.2mb 57f 59f
12:04am 1ft 8s 4 7 mph 1019.4mb 58f 59f
Sat 09/27 11:04pm 1ft 8s 4
mph
1019.6mb 58f 59f
10:04pm 1ft 8s 4 7 mph 1019.6mb 58f 60f
9:04pm 1ft 8s 7
mph
1019.3mb 58f 60f
8:04pm 1ft 8s 4 7 mph 1019.1mb 58f 60f
7:04pm 1ft 5s 4 7 mph 1018.8mb 58f 60f
6:04pm 1ft 8s 2 4 mph 1018.6mb 59f 63f
5:04pm 1.3ft 8s 4 7 mph 1018.3mb 59f 64f
4:04pm 1.3ft 8s 4 7 mph 1018.3mb 59f 64f
3:04pm 1.3ft 6s 7
mph
1018.3mb 58f 64f